sensor_id;sensor_type;location;lat;lon;timestamp;temperature;humidity
32749;DHT22;19119;52.474;13.710;2023-04-19T00:00:27;6.50;99.90
32749;DHT22;19119;52.474;13.710;2023-04-19T00:02:53;6.50;99.90
32749;DHT22;19119;52.474;13.710;2023-04-19T00:05:19;6.50;99.90
32749;DHT22;19119;52.474;13.710;2023-04-19T00:07:46;6.50;99.90
32749;DHT22;19119;52.474;13.710;2023-04-19T00:10:12;6.50;99.90
32749;DHT22;19119;52.474;13.710;2023-04-19T00:12:37;6.50;99.90
32749;DHT22;19119;52.474;13.710;2023-04-19T00:15:03;6.50;99.90
32749;DHT22;19119;52.474;13.710;2023-04-19T00:17:29;6.60;99.90
32749;DHT22;19119;52.474;13.710;2023-04-19T00:19:54;6.70;99.90
32749;DHT22;19119;52.474;13.710;2023-04-19T00:22:21;6.60;99.90
32749;DHT22;19119;52.474;13.710;2023-04-19T00:24:46;6.50;99.90
32749;DHT22;19119;52.474;13.710;2023-04-19T00:27:12;6.60;99.90
32749;DHT22;19119;52.474;13.710;2023-04-19T00:29:37;6.60;99.90
32749;DHT22;19119;52.474;13.710;2023-04-19T00:32:03;6.50;99.90
32749;DHT22;19119;52.474;13.710;2023-04-19T00:34:30;6.60;99.90
32749;DHT22;19119;52.474;13.710;2023-04-19T00:36:56;6.60;99.90
32749;DHT22;19119;52.474;13.710;2023-04-19T00:39:22;6.50;99.90
32749;DHT22;19119;52.474;13.710;2023-04-19T00:41:48;6.50;99.90
32749;DHT22;19119;52.474;13.710;2023-04-19T00:44:14;6.50;99.90
32749;DHT22;19119;52.474;13.710;2023-04-19T00:46:40;6.50;99.90
32749;DHT22;19119;52.474;13.710;2023-04-19T00:49:06;6.40;99.90
32749;DHT22;19119;52.474;13.710;2023-04-19T00:51:32;6.40;99.90
32749;DHT22;19119;52.474;13.710;2023-04-19T00:53:58;6.40;99.90
32749;DHT22;19119;52.474;13.710;2023-04-19T00:56:27;6.30;99.90
32749;DHT22;19119;52.474;13.710;2023-04-19T00:58:53;6.20;99.90
32749;DHT22;19119;52.474;13.710;2023-04-19T01:01:19;6.10;99.90
32749;DHT22;19119;52.474;13.710;2023-04-19T01:03:45;6.10;99.90
32749;DHT22;19119;52.474;13.710;2023-04-19T01:06:11;6.10;99.90
32749;DHT22;19119;52.474;13.710;2023-04-19T01:08:36;5.90;99.90
32749;DHT22;19119;52.474;13.710;2023-04-19T01:11:04;5.90;99.90
32749;DHT22;19119;52.474;13.710;2023-04-19T01:13:30;5.80;99.90
32749;DHT22;19119;52.474;13.710;2023-04-19T01:15:56;5.90;99.90
32749;DHT22;19119;52.474;13.710;2023-04-19T01:18:22;5.70;99.90
32749;DHT22;19119;52.474;13.710;2023-04-19T01:20:50;5.60;99.90
32749;DHT22;19119;52.474;13.710;2023-04-19T01:23:15;5.60;99.90
32749;DHT22;19119;52.474;13.710;2023-04-19T01:25:41;5.50;99.90
32749;DHT22;19119;52.474;13.710;2023-04-19T01:28:06;5.50;99.90
32749;DHT22;19119;52.474;13.710;2023-04-19T01:30:32;5.50;99.90
32749;DHT22;19119;52.474;13.710;2023-04-19T01:32:58;5.50;99.90
32749;DHT22;19119;52.474;13.710;2023-04-19T01:35:24;5.40;99.90
32749;DHT22;19119;52.474;13.710;2023-04-19T01:37:50;5.30;99.90
32749;DHT22;19119;52.474;13.710;2023-04-19T01:40:17;5.20;99.90
32749;DHT22;19119;52.474;13.710;2023-04-19T01:42:43;5.20;99.90
32749;DHT22;19119;52.474;13.710;2023-04-19T01:45:08;5.10;99.90
32749;DHT22;19119;52.474;13.710;2023-04-19T01:47:34;5.10;99.90
32749;DHT22;19119;52.474;13.710;2023-04-19T01:50:01;5.00;99.90
32749;DHT22;19119;52.474;13.710;2023-04-19T01:52:27;5.10;99.90
32749;DHT22;19119;52.474;13.710;2023-04-19T01:54:52;5.00;99.90
32749;DHT22;19119;52.474;13.710;2023-04-19T01:57:17;5.00;99.90
32749;DHT22;19119;52.474;13.710;2023-04-19T01:59:43;4.90;99.90
32749;DHT22;19119;52.474;13.710;2023-04-19T02:02:08;4.90;99.90
32749;DHT22;19119;52.474;13.710;2023-04-19T02:04:34;4.90;99.90
32749;DHT22;19119;52.474;13.710;2023-04-19T02:07:00;4.80;99.90
32749;DHT22;19119;52.474;13.710;2023-04-19T02:09:25;4.80;99.90
32749;DHT22;19119;52.474;13.710;2023-04-19T02:11:50;4.80;99.90
32749;DHT22;19119;52.474;13.710;2023-04-19T02:14:18;4.70;99.90
32749;DHT22;19119;52.474;13.710;2023-04-19T02:16:43;4.70;99.90
32749;DHT22;19119;52.474;13.710;2023-04-19T02:19:10;4.70;99.90
32749;DHT22;19119;52.474;13.710;2023-04-19T02:21:36;4.60;99.90
32749;DHT22;19119;52.474;13.710;2023-04-19T02:24:03;4.50;99.90
32749;DHT22;19119;52.474;13.710;2023-04-19T02:26:28;4.40;99.90
32749;DHT22;19119;52.474;13.710;2023-04-19T02:28:53;4.30;99.90
32749;DHT22;19119;52.474;13.710;2023-04-19T02:31:19;4.30;99.90
32749;DHT22;19119;52.474;13.710;2023-04-19T02:33:45;4.30;99.90
32749;DHT22;19119;52.474;13.710;2023-04-19T02:36:11;4.40;99.90
32749;DHT22;19119;52.474;13.710;2023-04-19T02:38:36;4.20;99.90
32749;DHT22;19119;52.474;13.710;2023-04-19T02:41:02;4.30;99.90
32749;DHT22;19119;52.474;13.710;2023-04-19T02:43:29;4.20;99.90
32749;DHT22;19119;52.474;13.710;2023-04-19T02:45:54;4.20;99.90
32749;DHT22;19119;52.474;13.710;2023-04-19T02:48:20;4.10;99.90
32749;DHT22;19119;52.474;13.710;2023-04-19T02:50:45;3.90;99.90
32749;DHT22;19119;52.474;13.710;2023-04-19T02:53:11;3.90;99.90
32749;DHT22;19119;52.474;13.710;2023-04-19T02:55:36;3.90;99.90
32749;DHT22;19119;52.474;13.710;2023-04-19T02:58:02;3.90;99.90
32749;DHT22;19119;52.474;13.710;2023-04-19T03:00:27;3.80;99.90
32749;DHT22;19119;52.474;13.710;2023-04-19T03:02:53;3.90;99.90
32749;DHT22;19119;52.474;13.710;2023-04-19T03:05:22;3.80;99.90
32749;DHT22;19119;52.474;13.710;2023-04-19T03:07:48;3.80;99.90
32749;DHT22;19119;52.474;13.710;2023-04-19T03:10:13;3.70;99.90
32749;DHT22;19119;52.474;13.710;2023-04-19T03:12:39;3.70;99.90
32749;DHT22;19119;52.474;13.710;2023-04-19T03:15:06;3.70;99.90
32749;DHT22;19119;52.474;13.710;2023-04-19T03:17:32;3.70;99.90
32749;DHT22;19119;52.474;13.710;2023-04-19T03:19:58;3.60;99.90
32749;DHT22;19119;52.474;13.710;2023-04-19T03:22:24;3.70;99.90
32749;DHT22;19119;52.474;13.710;2023-04-19T03:24:49;3.60;99.90
32749;DHT22;19119;52.474;13.710;2023-04-19T03:27:15;3.40;99.90
32749;DHT22;19119;52.474;13.710;2023-04-19T03:29:40;3.40;99.90
32749;DHT22;19119;52.474;13.710;2023-04-19T03:32:06;3.40;99.90
32749;DHT22;19119;52.474;13.710;2023-04-19T03:34:33;3.40;99.90
32749;DHT22;19119;52.474;13.710;2023-04-19T03:36:58;3.30;99.90
32749;DHT22;19119;52.474;13.710;2023-04-19T03:39:24;3.30;99.90
32749;DHT22;19119;52.474;13.710;2023-04-19T03:41:49;3.30;99.90
32749;DHT22;19119;52.474;13.710;2023-04-19T03:44:15;3.30;99.90
32749;DHT22;19119;52.474;13.710;2023-04-19T03:46:41;3.30;99.90
32749;DHT22;19119;52.474;13.710;2023-04-19T03:49:06;3.30;99.90
32749;DHT22;19119;52.474;13.710;2023-04-19T03:51:32;3.30;99.90
32749;DHT22;19119;52.474;13.710;2023-04-19T03:53:59;3.20;99.90
32749;DHT22;19119;52.474;13.710;2023-04-19T03:56:24;3.20;99.90
32749;DHT22;19119;52.474;13.710;2023-04-19T03:58:50;3.20;99.90
32749;DHT22;19119;52.474;13.710;2023-04-19T04:01:22;3.20;99.90
32749;DHT22;19119;52.474;13.710;2023-04-19T04:03:48;3.10;99.90
32749;DHT22;19119;52.474;13.710;2023-04-19T04:06:14;3.20;99.90
32749;DHT22;19119;52.474;13.710;2023-04-19T04:08:40;3.20;99.90
32749;DHT22;19119;52.474;13.710;2023-04-19T04:11:05;3.20;99.90
32749;DHT22;19119;52.474;13.710;2023-04-19T04:13:30;3.20;99.90
32749;DHT22;19119;52.474;13.710;2023-04-19T04:15:56;3.20;99.90
32749;DHT22;19119;52.474;13.710;2023-04-19T04:18:21;3.10;99.90
32749;DHT22;19119;52.474;13.710;2023-04-19T04:20:47;3.10;99.90
32749;DHT22;19119;52.474;13.710;2023-04-19T04:23:13;3.20;99.90
32749;DHT22;19119;52.474;13.710;2023-04-19T04:25:39;3.20;99.90
32749;DHT22;19119;52.474;13.710;2023-04-19T04:28:04;3.30;99.90
32749;DHT22;19119;52.474;13.710;2023-04-19T04:30:30;3.30;99.90
32749;DHT22;19119;52.474;13.710;2023-04-19T04:32:56;3.30;99.90
32749;DHT22;19119;52.474;13.710;2023-04-19T04:35:24;3.40;99.90
32749;DHT22;19119;52.474;13.710;2023-04-19T04:37:50;3.30;99.90
32749;DHT22;19119;52.474;13.710;2023-04-19T04:40:18;3.30;99.90
32749;DHT22;19119;52.474;13.710;2023-04-19T04:42:44;3.40;99.90
32749;DHT22;19119;52.474;13.710;2023-04-19T04:45:10;3.40;99.90
32749;DHT22;19119;52.474;13.710;2023-04-19T04:47:36;3.50;99.90
32749;DHT22;19119;52.474;13.710;2023-04-19T04:50:02;3.50;99.90
32749;DHT22;19119;52.474;13.710;2023-04-19T04:52:28;3.80;99.90
32749;DHT22;19119;52.474;13.710;2023-04-19T04:54:54;3.80;99.90
32749;DHT22;19119;52.474;13.710;2023-04-19T04:57:19;3.80;99.90
32749;DHT22;19119;52.474;13.710;2023-04-19T04:59:45;4.00;99.90
32749;DHT22;19119;52.474;13.710;2023-04-19T05:02:15;4.00;99.90
32749;DHT22;19119;52.474;13.710;2023-04-19T05:04:41;4.30;99.90
32749;DHT22;19119;52.474;13.710;2023-04-19T05:07:06;4.50;99.90
32749;DHT22;19119;52.474;13.710;2023-04-19T05:09:32;4.50;99.90
32749;DHT22;19119;52.474;13.710;2023-04-19T05:11:57;4.70;99.90
32749;DHT22;19119;52.474;13.710;2023-04-19T05:14:23;4.60;99.90
32749;DHT22;19119;52.474;13.710;2023-04-19T05:16:48;4.90;99.90
32749;DHT22;19119;52.474;13.710;2023-04-19T05:19:14;5.20;99.90
32749;DHT22;19119;52.474;13.710;2023-04-19T05:21:41;5.40;99.90
32749;DHT22;19119;52.474;13.710;2023-04-19T05:24:06;5.50;99.90
32749;DHT22;19119;52.474;13.710;2023-04-19T05:26:34;5.40;99.90
32749;DHT22;19119;52.474;13.710;2023-04-19T05:28:59;5.70;99.90
32749;DHT22;19119;52.474;13.710;2023-04-19T05:31:25;5.90;99.90
32749;DHT22;19119;52.474;13.710;2023-04-19T05:33:50;6.00;99.90
32749;DHT22;19119;52.474;13.710;2023-04-19T05:36:16;6.10;99.90
32749;DHT22;19119;52.474;13.710;2023-04-19T05:38:41;5.80;99.90
32749;DHT22;19119;52.474;13.710;2023-04-19T05:41:07;6.20;99.90
32749;DHT22;19119;52.474;13.710;2023-04-19T05:43:32;5.70;99.90
32749;DHT22;19119;52.474;13.710;2023-04-19T05:45:58;5.90;99.90
32749;DHT22;19119;52.474;13.710;2023-04-19T05:48:23;6.10;99.90
32749;DHT22;19119;52.474;13.710;2023-04-19T05:50:50;6.50;99.90
32749;DHT22;19119;52.474;13.710;2023-04-19T05:53:17;6.30;99.90
32749;DHT22;19119;52.474;13.710;2023-04-19T05:55:42;6.40;99.90
32749;DHT22;19119;52.474;13.710;2023-04-19T05:58:09;6.50;99.90
32749;DHT22;19119;52.474;13.710;2023-04-19T06:00:35;6.70;99.90
32749;DHT22;19119;52.474;13.710;2023-04-19T06:03:01;6.50;99.90
32749;DHT22;19119;52.474;13.710;2023-04-19T06:05:26;6.80;99.90
32749;DHT22;19119;52.474;13.710;2023-04-19T06:07:52;6.90;99.90
32749;DHT22;19119;52.474;13.710;2023-04-19T06:10:20;6.80;99.90
32749;DHT22;19119;52.474;13.710;2023-04-19T06:12:46;6.90;99.90
32749;DHT22;19119;52.474;13.710;2023-04-19T06:15:11;7.00;99.90
32749;DHT22;19119;52.474;13.710;2023-04-19T06:17:37;7.30;99.90
32749;DHT22;19119;52.474;13.710;2023-04-19T06:20:02;7.20;99.90
32749;DHT22;19119;52.474;13.710;2023-04-19T06:22:31;7.40;99.90
32749;DHT22;19119;52.474;13.710;2023-04-19T06:24:57;7.10;99.90
32749;DHT22;19119;52.474;13.710;2023-04-19T06:27:23;7.40;99.90
32749;DHT22;19119;52.474;13.710;2023-04-19T06:29:48;7.10;99.90
32749;DHT22;19119;52.474;13.710;2023-04-19T06:32:14;7.00;99.90
32749;DHT22;19119;52.474;13.710;2023-04-19T06:34:41;7.10;99.90
32749;DHT22;19119;52.474;13.710;2023-04-19T06:37:06;7.10;99.90
32749;DHT22;19119;52.474;13.710;2023-04-19T06:39:31;7.50;99.90
32749;DHT22;19119;52.474;13.710;2023-04-19T06:41:57;7.60;99.90
32749;DHT22;19119;52.474;13.710;2023-04-19T06:44:22;7.60;99.90
32749;DHT22;19119;52.474;13.710;2023-04-19T06:46:48;7.70;99.90
32749;DHT22;19119;52.474;13.710;2023-04-19T06:49:14;8.10;99.90
32749;DHT22;19119;52.474;13.710;2023-04-19T06:51:39;8.30;99.90
32749;DHT22;19119;52.474;13.710;2023-04-19T06:54:05;8.40;99.90
32749;DHT22;19119;52.474;13.710;2023-04-19T06:56:45;8.00;99.90
32749;DHT22;19119;52.474;13.710;2023-04-19T06:59:16;8.20;99.90
32749;DHT22;19119;52.474;13.710;2023-04-19T07:01:42;8.00;99.90
32749;DHT22;19119;52.474;13.710;2023-04-19T07:04:09;8.40;99.90
32749;DHT22;19119;52.474;13.710;2023-04-19T07:06:35;8.30;99.90
32749;DHT22;19119;52.474;13.710;2023-04-19T07:09:02;8.20;99.90
32749;DHT22;19119;52.474;13.710;2023-04-19T07:11:28;8.60;99.90
32749;DHT22;19119;52.474;13.710;2023-04-19T07:13:54;9.00;99.90
32749;DHT22;19119;52.474;13.710;2023-04-19T07:16:21;8.80;99.90
32749;DHT22;19119;52.474;13.710;2023-04-19T07:18:46;9.00;99.90
32749;DHT22;19119;52.474;13.710;2023-04-19T07:21:12;9.00;99.90
32749;DHT22;19119;52.474;13.710;2023-04-19T07:23:37;8.90;99.90
32749;DHT22;19119;52.474;13.710;2023-04-19T07:26:03;9.30;99.90
32749;DHT22;19119;52.474;13.710;2023-04-19T07:28:29;8.90;99.90
32749;DHT22;19119;52.474;13.710;2023-04-19T07:30:54;9.20;99.90
32749;DHT22;19119;52.474;13.710;2023-04-19T07:33:21;8.70;99.90
32749;DHT22;19119;52.474;13.710;2023-04-19T07:35:47;8.70;99.90
32749;DHT22;19119;52.474;13.710;2023-04-19T07:38:12;8.50;99.90
32749;DHT22;19119;52.474;13.710;2023-04-19T07:40:37;8.80;99.90
32749;DHT22;19119;52.474;13.710;2023-04-19T07:43:03;8.90;99.90
32749;DHT22;19119;52.474;13.710;2023-04-19T07:45:32;9.10;99.90
32749;DHT22;19119;52.474;13.710;2023-04-19T07:47:57;9.00;99.90
32749;DHT22;19119;52.474;13.710;2023-04-19T07:50:24;9.20;99.90
32749;DHT22;19119;52.474;13.710;2023-04-19T07:52:50;9.10;99.90
32749;DHT22;19119;52.474;13.710;2023-04-19T07:55:15;9.40;99.90
32749;DHT22;19119;52.474;13.710;2023-04-19T07:57:41;9.70;99.90
32749;DHT22;19119;52.474;13.710;2023-04-19T08:00:11;10.10;99.90
32749;DHT22;19119;52.474;13.710;2023-04-19T08:02:37;10.20;99.90
32749;DHT22;19119;52.474;13.710;2023-04-19T08:05:02;10.30;99.90
32749;DHT22;19119;52.474;13.710;2023-04-19T08:07:28;10.60;99.90
32749;DHT22;19119;52.474;13.710;2023-04-19T08:09:53;10.60;99.90
32749;DHT22;19119;52.474;13.710;2023-04-19T08:12:19;10.90;99.90
32749;DHT22;19119;52.474;13.710;2023-04-19T08:14:45;10.60;99.90
32749;DHT22;19119;52.474;13.710;2023-04-19T08:17:10;10.50;99.90
32749;DHT22;19119;52.474;13.710;2023-04-19T08:19:36;10.30;99.90
32749;DHT22;19119;52.474;13.710;2023-04-19T08:22:01;10.60;99.90
32749;DHT22;19119;52.474;13.710;2023-04-19T08:24:30;10.90;99.90
32749;DHT22;19119;52.474;13.710;2023-04-19T08:26:55;10.90;99.90
32749;DHT22;19119;52.474;13.710;2023-04-19T08:29:22;10.80;99.90
32749;DHT22;19119;52.474;13.710;2023-04-19T08:31:47;10.30;99.90
32749;DHT22;19119;52.474;13.710;2023-04-19T08:34:12;10.50;99.90
32749;DHT22;19119;52.474;13.710;2023-04-19T08:36:38;10.50;99.90
32749;DHT22;19119;52.474;13.710;2023-04-19T08:39:03;10.30;99.90
32749;DHT22;19119;52.474;13.710;2023-04-19T08:41:32;10.70;99.90
32749;DHT22;19119;52.474;13.710;2023-04-19T08:43:58;11.20;99.90
32749;DHT22;19119;52.474;13.710;2023-04-19T08:46:24;10.80;99.90
32749;DHT22;19119;52.474;13.710;2023-04-19T08:48:51;11.10;99.90
32749;DHT22;19119;52.474;13.710;2023-04-19T08:51:16;11.40;99.90
32749;DHT22;19119;52.474;13.710;2023-04-19T08:53:43;11.30;99.90
32749;DHT22;19119;52.474;13.710;2023-04-19T08:56:08;11.30;99.90
32749;DHT22;19119;52.474;13.710;2023-04-19T08:58:34;11.30;99.90
32749;DHT22;19119;52.474;13.710;2023-04-19T09:01:00;10.50;99.90
32749;DHT22;19119;52.474;13.710;2023-04-19T09:03:27;11.00;99.90
32749;DHT22;19119;52.474;13.710;2023-04-19T09:05:53;11.30;99.90
32749;DHT22;19119;52.474;13.710;2023-04-19T09:08:26;11.50;99.90
32749;DHT22;19119;52.474;13.710;2023-04-19T09:10:59;11.70;99.90
32749;DHT22;19119;52.474;13.710;2023-04-19T09:13:25;11.70;99.90
32749;DHT22;19119;52.474;13.710;2023-04-19T09:15:51;11.90;99.90
32749;DHT22;19119;52.474;13.710;2023-04-19T09:18:18;12.30;99.90
32749;DHT22;19119;52.474;13.710;2023-04-19T09:20:43;12.30;99.90
32749;DHT22;19119;52.474;13.710;2023-04-19T09:23:13;12.10;99.90
32749;DHT22;19119;52.474;13.710;2023-04-19T09:25:39;12.10;99.90
32749;DHT22;19119;52.474;13.710;2023-04-19T09:28:10;12.10;99.90
32749;DHT22;19119;52.474;13.710;2023-04-19T09:30:36;11.40;99.90
32749;DHT22;19119;52.474;13.710;2023-04-19T09:33:01;11.50;99.90
32749;DHT22;19119;52.474;13.710;2023-04-19T09:35:44;11.90;99.90
32749;DHT22;19119;52.474;13.710;2023-04-19T09:38:11;12.50;99.90
32749;DHT22;19119;52.474;13.710;2023-04-19T09:40:38;12.90;99.90
32749;DHT22;19119;52.474;13.710;2023-04-19T09:43:04;12.90;99.90
32749;DHT22;19119;52.474;13.710;2023-04-19T09:45:43;12.50;99.90
32749;DHT22;19119;52.474;13.710;2023-04-19T09:48:11;12.10;99.90
32749;DHT22;19119;52.474;13.710;2023-04-19T09:50:57;12.30;99.90
32749;DHT22;19119;52.474;13.710;2023-04-19T09:53:25;12.80;99.90
32749;DHT22;19119;52.474;13.710;2023-04-19T09:55:51;12.00;99.90
32749;DHT22;19119;52.474;13.710;2023-04-19T09:58:19;11.80;99.90
32749;DHT22;19119;52.474;13.710;2023-04-19T10:00:45;12.00;99.90
32749;DHT22;19119;52.474;13.710;2023-04-19T10:03:14;13.00;99.90
32749;DHT22;19119;52.474;13.710;2023-04-19T10:05:41;12.60;99.90
32749;DHT22;19119;52.474;13.710;2023-04-19T10:08:07;12.70;99.90
32749;DHT22;19119;52.474;13.710;2023-04-19T10:10:34;12.30;99.90
32749;DHT22;19119;52.474;13.710;2023-04-19T10:13:03;12.80;99.90
32749;DHT22;19119;52.474;13.710;2023-04-19T10:15:30;12.80;99.90
32749;DHT22;19119;52.474;13.710;2023-04-19T10:17:56;13.40;99.90
32749;DHT22;19119;52.474;13.710;2023-04-19T10:20:51;13.50;99.90
32749;DHT22;19119;52.474;13.710;2023-04-19T10:23:17;13.40;99.90
32749;DHT22;19119;52.474;13.710;2023-04-19T10:25:47;12.30;99.90
32749;DHT22;19119;52.474;13.710;2023-04-19T10:28:15;12.30;99.90
32749;DHT22;19119;52.474;13.710;2023-04-19T10:30:53;12.10;99.90
32749;DHT22;19119;52.474;13.710;2023-04-19T10:33:25;11.50;99.90
32749;DHT22;19119;52.474;13.710;2023-04-19T10:35:55;11.90;99.90
32749;DHT22;19119;52.474;13.710;2023-04-19T10:38:41;11.90;99.90
32749;DHT22;19119;52.474;13.710;2023-04-19T10:41:12;11.50;99.90
32749;DHT22;19119;52.474;13.710;2023-04-19T10:44:10;11.50;99.90
32749;DHT22;19119;52.474;13.710;2023-04-19T10:46:39;11.50;99.90
32749;DHT22;19119;52.474;13.710;2023-04-19T10:49:05;11.50;99.90
32749;DHT22;19119;52.474;13.710;2023-04-19T10:51:37;11.70;99.90
32749;DHT22;19119;52.474;13.710;2023-04-19T10:54:28;11.70;99.90
32749;DHT22;19119;52.474;13.710;2023-04-19T10:56:57;11.70;99.90
32749;DHT22;19119;52.474;13.710;2023-04-19T10:59:23;12.40;99.90
32749;DHT22;19119;52.474;13.710;2023-04-19T11:01:51;13.00;99.90
32749;DHT22;19119;52.474;13.710;2023-04-19T11:07:02;13.50;99.90
32749;DHT22;19119;52.474;13.710;2023-04-19T11:09:31;13.40;99.90
32749;DHT22;19119;52.474;13.710;2023-04-19T11:12:02;13.00;99.90
32749;DHT22;19119;52.474;13.710;2023-04-19T11:14:40;12.90;99.90
32749;DHT22;19119;52.474;13.710;2023-04-19T11:17:32;12.80;99.90
32749;DHT22;19119;52.474;13.710;2023-04-19T11:19:59;12.60;99.90
32749;DHT22;19119;52.474;13.710;2023-04-19T11:22:33;12.40;99.90
32749;DHT22;19119;52.474;13.710;2023-04-19T11:25:12;12.10;99.90
32749;DHT22;19119;52.474;13.710;2023-04-19T11:27:39;12.00;99.90
32749;DHT22;19119;52.474;13.710;2023-04-19T11:30:15;12.20;99.90
32749;DHT22;19119;52.474;13.710;2023-04-19T11:35:16;12.00;99.90
32749;DHT22;19119;52.474;13.710;2023-04-19T11:37:42;11.80;99.90
32749;DHT22;19119;52.474;13.710;2023-04-19T11:40:08;11.90;99.90
32749;DHT22;19119;52.474;13.710;2023-04-19T11:42:34;11.80;99.90
32749;DHT22;19119;52.474;13.710;2023-04-19T11:45:01;11.70;99.90
32749;DHT22;19119;52.474;13.710;2023-04-19T11:47:26;11.80;99.90
32749;DHT22;19119;52.474;13.710;2023-04-19T11:49:53;12.00;99.90
32749;DHT22;19119;52.474;13.710;2023-04-19T11:52:25;12.10;99.90
32749;DHT22;19119;52.474;13.710;2023-04-19T11:54:52;12.40;99.90
32749;DHT22;19119;52.474;13.710;2023-04-19T11:57:30;12.40;99.90
32749;DHT22;19119;52.474;13.710;2023-04-19T12:00:08;12.40;99.90
32749;DHT22;19119;52.474;13.710;2023-04-19T12:02:38;12.20;99.90
32749;DHT22;19119;52.474;13.710;2023-04-19T12:05:11;12.20;99.90
32749;DHT22;19119;52.474;13.710;2023-04-19T12:07:55;12.00;99.90
32749;DHT22;19119;52.474;13.710;2023-04-19T12:10:21;12.10;99.90
32749;DHT22;19119;52.474;13.710;2023-04-19T12:12:46;11.90;99.90
32749;DHT22;19119;52.474;13.710;2023-04-19T12:15:12;11.60;99.90
32749;DHT22;19119;52.474;13.710;2023-04-19T12:17:55;11.60;99.90
32749;DHT22;19119;52.474;13.710;2023-04-19T12:20:32;12.00;99.90
32749;DHT22;19119;52.474;13.710;2023-04-19T12:22:58;12.30;99.90
32749;DHT22;19119;52.474;13.710;2023-04-19T12:25:31;12.00;99.90
32749;DHT22;19119;52.474;13.710;2023-04-19T12:27:57;12.00;99.90
32749;DHT22;19119;52.474;13.710;2023-04-19T12:30:23;12.30;99.90
32749;DHT22;19119;52.474;13.710;2023-04-19T12:32:49;12.30;99.90
32749;DHT22;19119;52.474;13.710;2023-04-19T12:35:16;12.40;99.90
32749;DHT22;19119;52.474;13.710;2023-04-19T12:37:42;12.80;99.90
32749;DHT22;19119;52.474;13.710;2023-04-19T12:40:09;12.80;99.90
32749;DHT22;19119;52.474;13.710;2023-04-19T12:42:35;12.60;99.90
32749;DHT22;19119;52.474;13.710;2023-04-19T12:45:01;12.50;99.90
32749;DHT22;19119;52.474;13.710;2023-04-19T12:47:26;12.50;99.90
32749;DHT22;19119;52.474;13.710;2023-04-19T12:49:51;12.40;99.90
32749;DHT22;19119;52.474;13.710;2023-04-19T12:52:18;12.40;99.90
32749;DHT22;19119;52.474;13.710;2023-04-19T12:54:43;12.20;99.90
32749;DHT22;19119;52.474;13.710;2023-04-19T12:57:10;12.20;99.90
32749;DHT22;19119;52.474;13.710;2023-04-19T12:59:36;12.20;99.90
32749;DHT22;19119;52.474;13.710;2023-04-19T13:02:01;12.50;99.90
32749;DHT22;19119;52.474;13.710;2023-04-19T13:04:27;13.00;99.90
32749;DHT22;19119;52.474;13.710;2023-04-19T13:06:52;13.00;99.90
32749;DHT22;19119;52.474;13.710;2023-04-19T13:09:18;12.80;99.90
32749;DHT22;19119;52.474;13.710;2023-04-19T13:11:43;12.60;99.90
32749;DHT22;19119;52.474;13.710;2023-04-19T13:14:09;12.20;99.90
32749;DHT22;19119;52.474;13.710;2023-04-19T13:16:34;12.10;99.90
32749;DHT22;19119;52.474;13.710;2023-04-19T13:19:00;12.00;99.90
32749;DHT22;19119;52.474;13.710;2023-04-19T13:21:27;11.90;99.90
32749;DHT22;19119;52.474;13.710;2023-04-19T13:23:52;11.70;99.90
32749;DHT22;19119;52.474;13.710;2023-04-19T13:26:18;11.80;99.90
32749;DHT22;19119;52.474;13.710;2023-04-19T13:28:43;11.80;99.90
32749;DHT22;19119;52.474;13.710;2023-04-19T13:31:09;11.80;99.90
32749;DHT22;19119;52.474;13.710;2023-04-19T13:33:35;11.70;99.90
32749;DHT22;19119;52.474;13.710;2023-04-19T13:36:00;11.80;99.90
32749;DHT22;19119;52.474;13.710;2023-04-19T13:38:26;11.70;99.90
32749;DHT22;19119;52.474;13.710;2023-04-19T13:40:51;11.60;99.90
32749;DHT22;19119;52.474;13.710;2023-04-19T13:43:17;11.50;99.90
32749;DHT22;19119;52.474;13.710;2023-04-19T13:45:42;11.40;99.90
32749;DHT22;19119;52.474;13.710;2023-04-19T13:48:08;11.10;99.90
32749;DHT22;19119;52.474;13.710;2023-04-19T13:50:33;11.00;99.90
32749;DHT22;19119;52.474;13.710;2023-04-19T13:52:59;11.20;99.90
32749;DHT22;19119;52.474;13.710;2023-04-19T13:55:26;11.00;99.90
32749;DHT22;19119;52.474;13.710;2023-04-19T13:57:51;10.70;99.90
32749;DHT22;19119;52.474;13.710;2023-04-19T14:00:17;10.30;99.90
32749;DHT22;19119;52.474;13.710;2023-04-19T14:02:43;10.20;99.90
32749;DHT22;19119;52.474;13.710;2023-04-19T14:05:09;10.10;99.90
32749;DHT22;19119;52.474;13.710;2023-04-19T14:07:38;10.20;99.90
32749;DHT22;19119;52.474;13.710;2023-04-19T14:10:04;10.30;99.90
32749;DHT22;19119;52.474;13.710;2023-04-19T14:12:32;10.30;99.90
32749;DHT22;19119;52.474;13.710;2023-04-19T14:14:57;10.30;99.90
32749;DHT22;19119;52.474;13.710;2023-04-19T14:17:23;10.10;99.90
32749;DHT22;19119;52.474;13.710;2023-04-19T14:19:48;10.20;99.90
32749;DHT22;19119;52.474;13.710;2023-04-19T14:22:17;10.20;99.90
32749;DHT22;19119;52.474;13.710;2023-04-19T14:24:42;10.30;99.90
32749;DHT22;19119;52.474;13.710;2023-04-19T14:27:08;10.10;99.90
32749;DHT22;19119;52.474;13.710;2023-04-19T14:29:33;10.20;99.90
32749;DHT22;19119;52.474;13.710;2023-04-19T14:31:59;10.30;99.90
32749;DHT22;19119;52.474;13.710;2023-04-19T14:34:25;10.30;99.90
32749;DHT22;19119;52.474;13.710;2023-04-19T14:36:51;10.20;99.90
32749;DHT22;19119;52.474;13.710;2023-04-19T14:39:16;10.20;99.90
32749;DHT22;19119;52.474;13.710;2023-04-19T14:41:43;10.10;99.90
32749;DHT22;19119;52.474;13.710;2023-04-19T14:44:08;10.10;99.90
32749;DHT22;19119;52.474;13.710;2023-04-19T14:46:34;10.10;99.90
32749;DHT22;19119;52.474;13.710;2023-04-19T14:48:59;10.00;99.90
32749;DHT22;19119;52.474;13.710;2023-04-19T14:51:28;9.90;99.90
32749;DHT22;19119;52.474;13.710;2023-04-19T14:53:54;9.80;99.90
32749;DHT22;19119;52.474;13.710;2023-04-19T14:56:19;9.80;99.90
32749;DHT22;19119;52.474;13.710;2023-04-19T14:58:45;9.60;99.90
32749;DHT22;19119;52.474;13.710;2023-04-19T15:01:14;9.50;99.90
32749;DHT22;19119;52.474;13.710;2023-04-19T15:03:39;9.50;99.90
32749;DHT22;19119;52.474;13.710;2023-04-19T15:06:06;9.60;99.90
32749;DHT22;19119;52.474;13.710;2023-04-19T15:08:32;9.40;99.90
32749;DHT22;19119;52.474;13.710;2023-04-19T15:10:57;9.40;99.90
32749;DHT22;19119;52.474;13.710;2023-04-19T15:13:23;9.10;99.90
32749;DHT22;19119;52.474;13.710;2023-04-19T15:15:49;8.60;99.90
32749;DHT22;19119;52.474;13.710;2023-04-19T15:18:14;8.40;99.90
32749;DHT22;19119;52.474;13.710;2023-04-19T15:20:41;8.00;99.90
32749;DHT22;19119;52.474;13.710;2023-04-19T15:23:06;7.70;99.90
32749;DHT22;19119;52.474;13.710;2023-04-19T15:25:33;7.40;99.90
32749;DHT22;19119;52.474;13.710;2023-04-19T15:27:58;7.30;99.90